sensor_id;sensor_type;location;lat;lon;timestamp;pressure;altitude;pressure_sealevel;temperature;humidity
71559;BME280;59382;43.852;25.952;2024-03-06T00:00:47;101188.97;;;11.31;53.61
71559;BME280;59382;43.852;25.952;2024-03-06T00:03:13;101189.56;;;11.26;53.48
71559;BME280;59382;43.852;25.952;2024-03-06T00:05:39;101182.91;;;11.16;53.95
71559;BME280;59382;43.852;25.952;2024-03-06T00:08:04;101172.91;;;11.03;53.74
71559;BME280;59382;43.852;25.952;2024-03-06T00:10:30;101188.72;;;11.13;54.07
71559;BME280;59382;43.852;25.952;2024-03-06T00:12:55;101180.84;;;11.11;54.25
71559;BME280;59382;43.852;25.952;2024-03-06T00:15:21;101179.59;;;11.14;54.06
71559;BME280;59382;43.852;25.952;2024-03-06T00:17:47;101175.44;;;11.18;53.82
71559;BME280;59382;43.852;25.952;2024-03-06T00:20:12;101188.75;;;11.32;53.63
71559;BME280;59382;43.852;25.952;2024-03-06T00:22:39;101176.25;;;11.25;53.92
71559;BME280;59382;43.852;25.952;2024-03-06T00:25:05;101185.03;;;11.33;53.84
71559;BME280;59382;43.852;25.952;2024-03-06T00:27:31;101193.34;;;11.32;53.76
71559;BME280;59382;43.852;25.952;2024-03-06T00:29:56;101184.16;;;11.26;54.04
71559;BME280;59382;43.852;25.952;2024-03-06T00:32:22;101203.69;;;11.22;54.25
71559;BME280;59382;43.852;25.952;2024-03-06T00:34:49;101191.22;;;11.14;54.13
71559;BME280;59382;43.852;25.952;2024-03-06T00:37:14;101202.66;;;11.23;54.19
71559;BME280;59382;43.852;25.952;2024-03-06T00:39:40;101194.56;;;11.23;53.95
71559;BME280;59382;43.852;25.952;2024-03-06T00:42:05;101185.63;;;11.16;54.36
71559;BME280;59382;43.852;25.952;2024-03-06T00:44:31;101184.56;;;11.17;53.94
71559;BME280;59382;43.852;25.952;2024-03-06T00:46:56;101188.72;;;11.19;54.10
71559;BME280;59382;43.852;25.952;2024-03-06T00:49:22;101215.38;;;11.29;53.89
71559;BME280;59382;43.852;25.952;2024-03-06T00:51:47;101212.88;;;11.27;54.39
71559;BME280;59382;43.852;25.952;2024-03-06T00:54:13;101212.44;;;11.24;54.35
71559;BME280;59382;43.852;25.952;2024-03-06T00:56:39;101173.50;;;10.99;54.05
71559;BME280;59382;43.852;25.952;2024-03-06T00:59:05;101207.84;;;11.18;54.30
71559;BME280;59382;43.852;25.952;2024-03-06T01:01:30;101215.94;;;11.18;54.34
71559;BME280;59382;43.852;25.952;2024-03-06T01:03:56;101215.75;;;11.13;54.66
71559;BME280;59382;43.852;25.952;2024-03-06T01:06:21;101214.88;;;11.06;54.65
71559;BME280;59382;43.852;25.952;2024-03-06T01:08:47;101208.16;;;10.89;54.66
71559;BME280;59382;43.852;25.952;2024-03-06T01:11:12;101213.97;;;10.92;55.13
71559;BME280;59382;43.852;25.952;2024-03-06T01:13:40;101215.22;;;10.90;54.79
71559;BME280;59382;43.852;25.952;2024-03-06T01:16:06;101214.38;;;10.89;55.16
71559;BME280;59382;43.852;25.952;2024-03-06T01:18:32;101219.38;;;10.86;55.11
71559;BME280;59382;43.852;25.952;2024-03-06T01:20:58;101193.13;;;10.67;54.96
71559;BME280;59382;43.852;25.952;2024-03-06T01:23:23;101202.69;;;10.76;55.30
71559;BME280;59382;43.852;25.952;2024-03-06T01:25:49;101199.97;;;10.69;55.42
71559;BME280;59382;43.852;25.952;2024-03-06T01:28:14;101216.81;;;10.78;55.40
71559;BME280;59382;43.852;25.952;2024-03-06T01:30:40;101222.41;;;10.76;55.19
71559;BME280;59382;43.852;25.952;2024-03-06T01:33:05;101228.88;;;10.82;55.01
71559;BME280;59382;43.852;25.952;2024-03-06T01:35:31;101228.88;;;10.82;55.42
71559;BME280;59382;43.852;25.952;2024-03-06T01:37:57;101210.56;;;10.71;55.55
71559;BME280;59382;43.852;25.952;2024-03-06T01:40:23;101203.91;;;10.67;55.49
71559;BME280;59382;43.852;25.952;2024-03-06T01:42:49;101209.72;;;10.70;55.73
71559;BME280;59382;43.852;25.952;2024-03-06T01:45:15;101228.66;;;10.77;55.89
71559;BME280;59382;43.852;25.952;2024-03-06T01:47:40;101220.53;;;10.70;55.77
71559;BME280;59382;43.852;25.952;2024-03-06T01:50:06;101230.97;;;10.80;55.75
71559;BME280;59382;43.852;25.952;2024-03-06T01:52:35;101244.69;;;10.85;55.85
71559;BME280;59382;43.852;25.952;2024-03-06T01:55:01;101228.88;;;10.82;56.11
71559;BME280;59382;43.852;25.952;2024-03-06T01:57:27;101238.47;;;10.84;55.79
71559;BME280;59382;43.852;25.952;2024-03-06T01:59:54;101236.38;;;10.80;55.82
71559;BME280;59382;43.852;25.952;2024-03-06T02:02:20;101236.56;;;10.78;56.25
71559;BME280;59382;43.852;25.952;2024-03-06T02:04:46;101241.75;;;10.80;56.05
71559;BME280;59382;43.852;25.952;2024-03-06T02:07:13;101243.41;;;10.81;56.17
71559;BME280;59382;43.852;25.952;2024-03-06T02:09:39;101240.13;;;10.85;56.46
71559;BME280;59382;43.852;25.952;2024-03-06T02:12:06;101222.47;;;10.83;56.19
71559;BME280;59382;43.852;25.952;2024-03-06T02:14:36;101226.22;;;10.88;56.38
71559;BME280;59382;43.852;25.952;2024-03-06T02:17:01;101233.31;;;10.96;56.39
71559;BME280;59382;43.852;25.952;2024-03-06T02:19:43;101224.75;;;10.86;56.67
71559;BME280;59382;43.852;25.952;2024-03-06T02:22:10;101246.81;;;10.96;56.81
71559;BME280;59382;43.852;25.952;2024-03-06T02:24:37;101241.81;;;10.93;56.50
71559;BME280;59382;43.852;25.952;2024-03-06T02:27:03;101248.06;;;11.00;56.79
71559;BME280;59382;43.852;25.952;2024-03-06T02:29:32;101250.38;;;11.03;56.77
71559;BME280;59382;43.852;25.952;2024-03-06T02:32:01;101237.06;;;10.95;56.34
71559;BME280;59382;43.852;25.952;2024-03-06T02:34:29;101247.66;;;11.03;56.67
71559;BME280;59382;43.852;25.952;2024-03-06T02:36:57;101234.97;;;10.97;56.41
71559;BME280;59382;43.852;25.952;2024-03-06T02:39:23;101233.16;;;11.04;56.42
71559;BME280;59382;43.852;25.952;2024-03-06T02:41:49;101229.00;;;11.08;56.90
71559;BME280;59382;43.852;25.952;2024-03-06T02:44:15;101234.66;;;11.13;56.66
71559;BME280;59382;43.852;25.952;2024-03-06T02:46:46;101250.25;;;11.24;56.78
71559;BME280;59382;43.852;25.952;2024-03-06T02:49:12;101254.19;;;11.28;56.61
71559;BME280;59382;43.852;25.952;2024-03-06T02:51:38;101249.44;;;11.30;56.51
71559;BME280;59382;43.852;25.952;2024-03-06T02:54:04;101232.78;;;11.20;56.29
71559;BME280;59382;43.852;25.952;2024-03-06T02:56:29;101242.97;;;11.18;56.45
71559;BME280;59382;43.852;25.952;2024-03-06T02:58:55;101260.22;;;11.17;56.24
71559;BME280;59382;43.852;25.952;2024-03-06T03:01:20;101239.75;;;10.95;56.44
71559;BME280;59382;43.852;25.952;2024-03-06T03:03:46;101257.81;;;10.94;56.59
71559;BME280;59382;43.852;25.952;2024-03-06T03:06:12;101262.56;;;10.86;56.50
71559;BME280;59382;43.852;25.952;2024-03-06T03:08:39;101270.66;;;10.86;56.91
71559;BME280;59382;43.852;25.952;2024-03-06T03:11:05;101283.97;;;10.87;57.02
71559;BME280;59382;43.852;25.952;2024-03-06T03:13:31;101270.06;;;10.90;56.60
71559;BME280;59382;43.852;25.952;2024-03-06T03:15:56;101264.63;;;10.84;56.99
71559;BME280;59382;43.852;25.952;2024-03-06T03:18:22;101257.16;;;10.86;56.64
71559;BME280;59382;43.852;25.952;2024-03-06T03:20:47;101275.06;;;11.00;56.73
71559;BME280;59382;43.852;25.952;2024-03-06T03:23:13;101275.06;;;11.00;56.89
71559;BME280;59382;43.852;25.952;2024-03-06T03:25:40;101279.25;;;11.02;56.63
71559;BME280;59382;43.852;25.952;2024-03-06T03:28:06;101273.88;;;11.02;56.75
71559;BME280;59382;43.852;25.952;2024-03-06T03:30:32;101280.53;;;11.06;56.46
71559;BME280;59382;43.852;25.952;2024-03-06T03:32:58;101291.38;;;11.13;56.69
71559;BME280;59382;43.852;25.952;2024-03-06T03:35:24;101296.16;;;11.17;56.89
71559;BME280;59382;43.852;25.952;2024-03-06T03:37:59;101297.63;;;11.20;56.66
71559;BME280;59382;43.852;25.952;2024-03-06T03:40:24;101282.22;;;11.14;56.96
71559;BME280;59382;43.852;25.952;2024-03-06T03:42:50;101285.97;;;11.19;56.36
71559;BME280;59382;43.852;25.952;2024-03-06T03:45:15;101277.66;;;11.14;56.68
71559;BME280;59382;43.852;25.952;2024-03-06T03:47:42;101295.53;;;11.22;56.28
71559;BME280;59382;43.852;25.952;2024-03-06T03:50:08;101298.44;;;11.14;56.82
71559;BME280;59382;43.852;25.952;2024-03-06T03:52:34;101303.78;;;11.07;57.07
71559;BME280;59382;43.852;25.952;2024-03-06T03:55:00;101301.69;;;11.03;57.12
71559;BME280;59382;43.852;25.952;2024-03-06T03:57:25;101307.06;;;10.96;56.84
71559;BME280;59382;43.852;25.952;2024-03-06T03:59:51;101294.75;;;10.87;56.93
71559;BME280;59382;43.852;25.952;2024-03-06T04:02:16;101308.06;;;10.89;56.88
71559;BME280;59382;43.852;25.952;2024-03-06T04:04:42;101309.88;;;10.82;56.91
71559;BME280;59382;43.852;25.952;2024-03-06T04:07:08;101318.63;;;10.84;56.87
71559;BME280;59382;43.852;25.952;2024-03-06T04:09:33;101315.66;;;10.79;57.02
71559;BME280;59382;43.852;25.952;2024-03-06T04:12:04;101311.31;;;10.78;57.34
71559;BME280;59382;43.852;25.952;2024-03-06T04:14:30;101317.09;;;10.75;56.93
71559;BME280;59382;43.852;25.952;2024-03-06T04:16:56;101316.47;;;10.73;56.90
71559;BME280;59382;43.852;25.952;2024-03-06T04:19:21;101320.97;;;10.66;57.21
71559;BME280;59382;43.852;25.952;2024-03-06T04:21:47;101313.44;;;10.55;57.57
71559;BME280;59382;43.852;25.952;2024-03-06T04:24:13;101301.91;;;10.40;57.40
71559;BME280;59382;43.852;25.952;2024-03-06T04:26:38;101317.31;;;10.46;57.57
71559;BME280;59382;43.852;25.952;2024-03-06T04:29:03;101311.41;;;10.36;57.19
71559;BME280;59382;43.852;25.952;2024-03-06T04:31:29;101308.22;;;10.26;57.49
71559;BME280;59382;43.852;25.952;2024-03-06T04:33:54;101335.19;;;10.26;57.23
71559;BME280;59382;43.852;25.952;2024-03-06T04:36:20;101348.06;;;10.24;57.56
71559;BME280;59382;43.852;25.952;2024-03-06T04:38:45;101348.44;;;10.21;57.13
71559;BME280;59382;43.852;25.952;2024-03-06T04:41:11;101320.69;;;10.06;57.17
71559;BME280;59382;43.852;25.952;2024-03-06T04:43:36;101350.41;;;10.12;57.33
71559;BME280;59382;43.852;25.952;2024-03-06T04:46:03;101335.66;;;10.08;57.21
71559;BME280;59382;43.852;25.952;2024-03-06T04:48:29;101332.84;;;10.01;57.58
71559;BME280;59382;43.852;25.952;2024-03-06T04:50:54;101344.09;;;10.05;57.26
71559;BME280;59382;43.852;25.952;2024-03-06T04:53:20;101339.00;;;9.95;57.03
71559;BME280;59382;43.852;25.952;2024-03-06T04:55:46;101342.38;;;9.97;57.16
71559;BME280;59382;43.852;25.952;2024-03-06T04:58:12;101333.13;;;9.85;57.37
71559;BME280;59382;43.852;25.952;2024-03-06T05:00:38;101353.53;;;9.94;57.48
71559;BME280;59382;43.852;25.952;2024-03-06T05:03:03;101362.28;;;9.96;57.43
71559;BME280;59382;43.852;25.952;2024-03-06T05:05:29;101337.66;;;9.85;57.48
71559;BME280;59382;43.852;25.952;2024-03-06T05:07:55;101355.47;;;10.00;57.26
71559;BME280;59382;43.852;25.952;2024-03-06T05:10:21;101366.06;;;10.02;57.31
71559;BME280;59382;43.852;25.952;2024-03-06T05:12:46;101362.50;;;10.01;57.48
71559;BME280;59382;43.852;25.952;2024-03-06T05:15:13;101365.22;;;10.01;57.37
71559;BME280;59382;43.852;25.952;2024-03-06T05:17:38;101375.63;;;10.04;57.08
71559;BME280;59382;43.852;25.952;2024-03-06T05:20:04;101376.38;;;9.98;57.53
71559;BME280;59382;43.852;25.952;2024-03-06T05:22:30;101387.81;;;10.00;57.24
71559;BME280;59382;43.852;25.952;2024-03-06T05:24:56;101371.13;;;9.90;57.35
71559;BME280;59382;43.852;25.952;2024-03-06T05:27:23;101385.31;;;9.99;57.40
71559;BME280;59382;43.852;25.952;2024-03-06T05:29:49;101394.88;;;10.01;57.40
71559;BME280;59382;43.852;25.952;2024-03-06T05:32:14;101393.22;;;10.00;57.24
71559;BME280;59382;43.852;25.952;2024-03-06T05:34:40;101386.72;;;9.95;57.13
71559;BME280;59382;43.852;25.952;2024-03-06T05:37:06;101365.41;;;9.79;57.02
71559;BME280;59382;43.852;25.952;2024-03-06T05:39:32;101375.78;;;9.82;57.36
71559;BME280;59382;43.852;25.952;2024-03-06T05:42:00;101402.72;;;9.96;57.45
71559;BME280;59382;43.852;25.952;2024-03-06T05:44:28;101410.81;;;9.96;57.02
71559;BME280;59382;43.852;25.952;2024-03-06T05:46:53;101423.63;;;9.94;57.15
71559;BME280;59382;43.852;25.952;2024-03-06T05:49:19;101420.66;;;9.89;57.00
71559;BME280;59382;43.852;25.952;2024-03-06T05:51:44;101418.53;;;9.85;57.22
71559;BME280;59382;43.852;25.952;2024-03-06T05:54:11;101419.56;;;9.84;56.99
71559;BME280;59382;43.852;25.952;2024-03-06T05:56:36;101424.75;;;9.85;57.38
71559;BME280;59382;43.852;25.952;2024-03-06T05:59:02;101407.31;;;9.81;57.01
71559;BME280;59382;43.852;25.952;2024-03-06T06:01:30;101408.78;;;9.84;57.21
71559;BME280;59382;43.852;25.952;2024-03-06T06:03:56;101419.66;;;9.90;56.87
71559;BME280;59382;43.852;25.952;2024-03-06T06:06:22;101408.03;;;9.90;57.01
71559;BME280;59382;43.852;25.952;2024-03-06T06:08:48;101430.78;;;10.02;56.96
71559;BME280;59382;43.852;25.952;2024-03-06T06:11:13;101429.91;;;10.01;56.63
71559;BME280;59382;43.852;25.952;2024-03-06T06:13:39;101411.38;;;9.92;56.80
71559;BME280;59382;43.852;25.952;2024-03-06T06:16:05;101415.53;;;9.94;56.74
71559;BME280;59382;43.852;25.952;2024-03-06T06:18:31;101427.03;;;10.03;56.56
71559;BME280;59382;43.852;25.952;2024-03-06T06:20:57;101433.81;;;10.14;56.78
71559;BME280;59382;43.852;25.952;2024-03-06T06:23:23;101445.94;;;10.18;56.39
71559;BME280;59382;43.852;25.952;2024-03-06T06:25:49;101449.44;;;10.18;56.46
71559;BME280;59382;43.852;25.952;2024-03-06T06:28:14;101428.53;;;10.06;56.62
71559;BME280;59382;43.852;25.952;2024-03-06T06:30:40;101443.59;;;10.15;56.42
71559;BME280;59382;43.852;25.952;2024-03-06T06:33:06;101412.47;;;9.97;56.20
71559;BME280;59382;43.852;25.952;2024-03-06T06:35:32;101424.53;;;10.01;56.41
71559;BME280;59382;43.852;25.952;2024-03-06T06:38:00;101429.19;;;10.08;56.85
71559;BME280;59382;43.852;25.952;2024-03-06T06:40:25;101445.94;;;10.18;56.54
71559;BME280;59382;43.852;25.952;2024-03-06T06:42:53;101434.41;;;10.09;56.28
71559;BME280;59382;43.852;25.952;2024-03-06T06:45:20;101445.94;;;10.18;56.80
71559;BME280;59382;43.852;25.952;2024-03-06T06:47:51;101431.50;;;10.11;56.59
71559;BME280;59382;43.852;25.952;2024-03-06T06:50:16;101446.81;;;10.25;56.74
71559;BME280;59382;43.852;25.952;2024-03-06T06:52:43;101454.53;;;10.28;56.75
71559;BME280;59382;43.852;25.952;2024-03-06T06:55:09;101450.59;;;10.30;56.41
71559;BME280;59382;43.852;25.952;2024-03-06T06:57:37;101445.69;;;10.34;56.55
71559;BME280;59382;43.852;25.952;2024-03-06T07:00:04;101436.53;;;10.35;56.66
71559;BME280;59382;43.852;25.952;2024-03-06T07:02:41;101449.25;;;10.41;56.30
71559;BME280;59382;43.852;25.952;2024-03-06T07:05:08;101452.84;;;10.48;56.46
71559;BME280;59382;43.852;25.952;2024-03-06T07:07:35;101449.66;;;10.59;56.15
71559;BME280;59382;43.852;25.952;2024-03-06T07:10:01;101461.41;;;10.72;56.47
71559;BME280;59382;43.852;25.952;2024-03-06T07:12:28;101449.75;;;10.72;56.50
71559;BME280;59382;43.852;25.952;2024-03-06T07:14:53;101454.00;;;10.81;55.71
71559;BME280;59382;43.852;25.952;2024-03-06T07:17:19;101453.13;;;10.74;55.73
71559;BME280;59382;43.852;25.952;2024-03-06T07:19:45;101468.91;;;10.77;55.73
71559;BME280;59382;43.852;25.952;2024-03-06T07:22:10;101468.47;;;10.73;55.83
71559;BME280;59382;43.852;25.952;2024-03-06T07:24:36;101445.91;;;10.60;56.23
71559;BME280;59382;43.852;25.952;2024-03-06T07:27:02;101456.84;;;10.73;56.22
71559;BME280;59382;43.852;25.952;2024-03-06T07:29:28;101455.94;;;10.66;56.30
71559;BME280;59382;43.852;25.952;2024-03-06T07:31:53;101474.31;;;10.77;55.75
71559;BME280;59382;43.852;25.952;2024-03-06T07:34:19;101455.94;;;10.66;56.10
71559;BME280;59382;43.852;25.952;2024-03-06T07:36:47;101469.53;;;10.79;55.90
71559;BME280;59382;43.852;25.952;2024-03-06T07:39:15;101463.44;;;10.70;55.77
71559;BME280;59382;43.852;25.952;2024-03-06T07:41:41;101461.34;;;10.66;56.30
71559;BME280;59382;43.852;25.952;2024-03-06T07:44:07;101470.34;;;10.73;56.11
71559;BME280;59382;43.852;25.952;2024-03-06T07:46:34;101472.25;;;10.79;55.81
71559;BME280;59382;43.852;25.952;2024-03-06T07:49:00;101476.81;;;10.78;55.86
71559;BME280;59382;43.852;25.952;2024-03-06T07:51:26;101480.47;;;10.92;55.67
71559;BME280;59382;43.852;25.952;2024-03-06T07:53:51;101491.50;;;10.97;56.08
71559;BME280;59382;43.852;25.952;2024-03-06T07:56:18;101466.72;;;10.87;56.06
71559;BME280;59382;43.852;25.952;2024-03-06T07:58:43;101491.13;;;11.00;55.92
71559;BME280;59382;43.852;25.952;2024-03-06T08:01:10;101499.03;;;11.01;55.68
71559;BME280;59382;43.852;25.952;2024-03-06T08:03:38;101484.06;;;10.99;55.43
71559;BME280;59382;43.852;25.952;2024-03-06T08:06:05;101496.53;;;11.00;55.47
71559;BME280;59382;43.852;25.952;2024-03-06T08:08:30;101485.88;;;10.92;55.83
71559;BME280;59382;43.852;25.952;2024-03-06T08:10:56;101501.09;;;10.99;55.52
71559;BME280;59382;43.852;25.952;2024-03-06T08:13:21;101506.53;;;11.06;55.88
71559;BME280;59382;43.852;25.952;2024-03-06T08:15:47;101494.84;;;10.99;55.95
71559;BME280;59382;43.852;25.952;2024-03-06T08:18:12;101504.75;;;11.13;55.47
71559;BME280;59382;43.852;25.952;2024-03-06T08:20:39;101511.25;;;11.25;55.52
71559;BME280;59382;43.852;25.952;2024-03-06T08:23:08;101497.53;;;11.20;55.28
71559;BME280;59382;43.852;25.952;2024-03-06T08:25:35;101498.41;;;11.27;55.08
71559;BME280;59382;43.852;25.952;2024-03-06T08:28:01;101486.75;;;11.26;55.25
71559;BME280;59382;43.852;25.952;2024-03-06T08:30:28;101503.66;;;11.35;55.05
71559;BME280;59382;43.852;25.952;2024-03-06T08:32:58;101502.22;;;11.39;54.70
71559;BME280;59382;43.852;25.952;2024-03-06T08:35:24;101475.13;;;11.26;54.68
71559;BME280;59382;43.852;25.952;2024-03-06T08:37:50;101523.50;;;11.48;54.97
71559;BME280;59382;43.852;25.952;2024-03-06T08:40:16;101484.50;;;11.30;54.93
71559;BME280;59382;43.852;25.952;2024-03-06T08:42:49;101498.88;;;11.37;54.80
71559;BME280;59382;43.852;25.952;2024-03-06T08:45:16;101497.88;;;11.38;54.95
71559;BME280;59382;43.852;25.952;2024-03-06T08:47:45;101512.91;;;11.47;55.14
71559;BME280;59382;43.852;25.952;2024-03-06T08:50:12;101496.63;;;11.40;54.54
71559;BME280;59382;43.852;25.952;2024-03-06T08:52:38;101505.66;;;11.54;54.77
71559;BME280;59382;43.852;25.952;2024-03-06T08:55:05;101496.94;;;11.58;54.75
71559;BME280;59382;43.852;25.952;2024-03-06T08:57:37;101504.66;;;11.61;54.33
71559;BME280;59382;43.852;25.952;2024-03-06T09:00:07;101506.41;;;11.69;53.98
71559;BME280;59382;43.852;25.952;2024-03-06T09:02:40;101492.84;;;11.62;54.24
71559;BME280;59382;43.852;25.952;2024-03-06T09:05:09;101502.00;;;11.68;54.36
71559;BME280;59382;43.852;25.952;2024-03-06T09:07:36;101498.72;;;11.72;53.91
71559;BME280;59382;43.852;25.952;2024-03-06T09:10:10;101496.22;;;11.71;54.00
71559;BME280;59382;43.852;25.952;2024-03-06T09:12:36;101496.00;;;11.66;53.49
71559;BME280;59382;43.852;25.952;2024-03-06T09:15:02;101478.63;;;11.54;53.81
71559;BME280;59382;43.852;25.952;2024-03-06T09:17:29;101500.13;;;11.62;54.00
71559;BME280;59382;43.852;25.952;2024-03-06T09:19:55;101488.94;;;11.65;53.80
71559;BME280;59382;43.852;25.952;2024-03-06T09:22:21;101494.56;;;11.70;53.82
71559;BME280;59382;43.852;25.952;2024-03-06T09:24:47;101500.41;;;11.80;54.02
71559;BME280;59382;43.852;25.952;2024-03-06T09:27:14;101490.88;;;11.84;53.72
71559;BME280;59382;43.852;25.952;2024-03-06T09:29:40;101495.09;;;11.93;53.10
71559;BME280;59382;43.852;25.952;2024-03-06T09:32:06;101492.00;;;11.96;53.01
71559;BME280;59382;43.852;25.952;2024-03-06T09:34:31;101495.09;;;11.93;53.13
71559;BME280;59382;43.852;25.952;2024-03-06T09:36:57;101478.38;;;11.83;53.38
71559;BME280;59382;43.852;25.952;2024-03-06T09:39:23;101486.59;;;11.96;52.98
71559;BME280;59382;43.852;25.952;2024-03-06T09:41:49;101479.72;;;12.00;53.21
71559;BME280;59382;43.852;25.952;2024-03-06T09:44:16;101488.69;;;12.07;52.83
71559;BME280;59382;43.852;25.952;2024-03-06T09:46:43;101491.78;;;12.04;52.35
71559;BME280;59382;43.852;25.952;2024-03-06T09:49:14;101482.44;;;12.00;52.98
71559;BME280;59382;43.852;25.952;2024-03-06T09:51:43;101474.94;;;12.02;52.93
71559;BME280;59382;43.852;25.952;2024-03-06T09:54:13;101467.25;;;11.99;52.88
71559;BME280;59382;43.852;25.952;2024-03-06T09:56:48;101466.81;;;11.96;52.38
71559;BME280;59382;43.852;25.952;2024-03-06T09:59:14;101459.69;;;11.88;52.64
71559;BME280;59382;43.852;25.952;2024-03-06T10:04:23;101470.56;;;12.01;52.67
71559;BME280;59382;43.852;25.952;2024-03-06T10:06:56;101458.03;;;11.93;52.19
71559;BME280;59382;43.852;25.952;2024-03-06T10:09:23;101470.56;;;12.01;52.58
71559;BME280;59382;43.852;25.952;2024-03-06T10:11:49;101479.75;;;12.07;52.42
71559;BME280;59382;43.852;25.952;2024-03-06T10:14:18;101460.63;;;12.08;52.54
71559;BME280;59382;43.852;25.952;2024-03-06T10:16:58;101482.72;;;12.25;52.34
71559;BME280;59382;43.852;25.952;2024-03-06T10:19:25;101465.66;;;12.24;52.06
71559;BME280;59382;43.852;25.952;2024-03-06T10:21:53;101468.56;;;12.23;52.07
71559;BME280;59382;43.852;25.952;2024-03-06T10:24:23;101459.38;;;12.17;51.62
71559;BME280;59382;43.852;25.952;2024-03-06T10:26:54;101473.13;;;12.22;51.85
71559;BME280;59382;43.852;25.952;2024-03-06T10:29:22;101449.81;;;12.08;52.14
71559;BME280;59382;43.852;25.952;2024-03-06T10:31:49;101472.31;;;12.28;52.09
71559;BME280;59382;43.852;25.952;2024-03-06T10:36:42;101463.63;;;12.39;52.01
71559;BME280;59382;43.852;25.952;2024-03-06T10:39:11;101468.63;;;12.42;51.96
71559;BME280;59382;43.852;25.952;2024-03-06T10:41:40;101447.81;;;12.49;52.10
71559;BME280;59382;43.852;25.952;2024-03-06T10:44:11;101452.38;;;12.62;51.89
71559;BME280;59382;43.852;25.952;2024-03-06T10:46:44;101452.00;;;12.71;51.67
71559;BME280;59382;43.852;25.952;2024-03-06T10:49:13;101458.03;;;12.80;51.64
71559;BME280;59382;43.852;25.952;2024-03-06T10:51:43;101457.41;;;12.84;51.21
71559;BME280;59382;43.852;25.952;2024-03-06T10:54:11;101454.50;;;12.79;51.63
71559;BME280;59382;43.852;25.952;2024-03-06T10:56:39;101449.50;;;12.89;51.48
71559;BME280;59382;43.852;25.952;2024-03-06T10:59:10;101437.59;;;12.90;51.00
71559;BME280;59382;43.852;25.952;2024-03-06T11:01:37;101441.38;;;13.02;51.33
71559;BME280;59382;43.852;25.952;2024-03-06T11:04:05;101441.59;;;13.07;51.15
71559;BME280;59382;43.852;25.952;2024-03-06T11:06:31;101437.66;;;13.03;51.02
71559;BME280;59382;43.852;25.952;2024-03-06T11:08:56;101429.91;;;12.94;51.29
71559;BME280;59382;43.852;25.952;2024-03-06T11:11:23;101441.59;;;13.07;51.30
71559;BME280;59382;43.852;25.952;2024-03-06T11:13:49;101437.22;;;13.06;51.25
71559;BME280;59382;43.852;25.952;2024-03-06T11:16:15;101448.25;;;13.11;51.36
71559;BME280;59382;43.852;25.952;2024-03-06T11:18:41;101437.00;;;13.14;51.46
71559;BME280;59382;43.852;25.952;2024-03-06T11:24:12;101444.09;;;13.09;50.90
71559;BME280;59382;43.852;25.952;2024-03-06T11:26:42;101417.81;;;12.96;51.25
71559;BME280;59382;43.852;25.952;2024-03-06T11:29:08;101434.53;;;13.06;50.97
71559;BME280;59382;43.852;25.952;2024-03-06T11:31:34;101432.66;;;13.00;50.74
71559;BME280;59382;43.852;25.952;2024-03-06T11:34:03;101428.84;;;12.95;50.85
71559;BME280;59382;43.852;25.952;2024-03-06T11:36:29;101431.59;;;12.88;51.24
71559;BME280;59382;43.852;25.952;2024-03-06T11:38:58;101433.03;;;12.91;51.12
71559;BME280;59382;43.852;25.952;2024-03-06T11:44:14;101434.06;;;12.83;51.12
71559;BME280;59382;43.852;25.952;2024-03-06T11:46:48;101427.84;;;12.76;51.34
71559;BME280;59382;43.852;25.952;2024-03-06T11:49:18;101426.38;;;12.80;51.24
71559;BME280;59382;43.852;25.952;2024-03-06T11:51:47;101433.03;;;12.84;51.49
71559;BME280;59382;43.852;25.952;2024-03-06T11:54:13;101422.81;;;12.86;51.50
71559;BME280;59382;43.852;25.952;2024-03-06T11:56:44;101407.19;;;12.82;51.43
71559;BME280;59382;43.852;25.952;2024-03-06T11:59:10;101414.91;;;12.91;51.35
71559;BME280;59382;43.852;25.952;2024-03-06T12:01:40;101426.19;;;13.01;51.31
71559;BME280;59382;43.852;25.952;2024-03-06T12:04:06;101415.97;;;13.03;51.10
71559;BME280;59382;43.852;25.952;2024-03-06T12:06:35;101417.63;;;13.04;51.15
71559;BME280;59382;43.852;25.952;2024-03-06T12:09:02;101399.91;;;12.95;51.02
71559;BME280;59382;43.852;25.952;2024-03-06T12:11:29;101401.97;;;12.93;50.83
71559;BME280;59382;43.852;25.952;2024-03-06T12:13:56;101412.84;;;13.06;50.83
71559;BME280;59382;43.852;25.952;2024-03-06T12:16:22;101407.63;;;13.05;51.04
71559;BME280;59382;43.852;25.952;2024-03-06T12:18:58;101389.91;;;13.02;50.91
71559;BME280;59382;43.852;25.952;2024-03-06T12:21:34;101398.44;;;13.12;50.91
71559;BME280;59382;43.852;25.952;2024-03-06T12:24:08;101401.13;;;13.19;50.70
71559;BME280;59382;43.852;25.952;2024-03-06T12:26:36;101404.06;;;13.17;50.73
71559;BME280;59382;43.852;25.952;2024-03-06T12:29:09;101399.44;;;13.24;50.67
71559;BME280;59382;43.852;25.952;2024-03-06T12:31:38;101408.41;;;13.31;50.74
71559;BME280;59382;43.852;25.952;2024-03-06T12:34:07;101401.94;;;13.32;50.61
71559;BME280;59382;43.852;25.952;2024-03-06T12:36:33;101370.47;;;13.25;50.77
71559;BME280;59382;43.852;25.952;2024-03-06T12:38:59;101380.03;;;13.40;50.59
71559;BME280;59382;43.852;25.952;2024-03-06T12:41:26;101397.31;;;13.52;50.33
71559;BME280;59382;43.852;25.952;2024-03-06T12:43:52;101378.56;;;13.44;50.50
71559;BME280;59382;43.852;25.952;2024-03-06T12:46:18;101398.75;;;13.55;50.75
71559;BME280;59382;43.852;25.952;2024-03-06T12:48:44;101385.19;;;13.48;50.28